sensor_id;sensor_type;location;lat;lon;timestamp;P1;durP1;ratioP1;P2;durP2;ratioP2
22922;SDS011;11627;51.322;22.816;2023-08-17T00:00:02;26.35;;;18.05;;
22922;SDS011;11627;51.322;22.816;2023-08-17T00:02:30;23.20;;;17.55;;
22922;SDS011;11627;51.322;22.816;2023-08-17T00:04:57;25.17;;;17.83;;
22922;SDS011;11627;51.322;22.816;2023-08-17T00:07:23;20.42;;;17.17;;
22922;SDS011;11627;51.322;22.816;2023-08-17T00:09:49;25.00;;;17.90;;
22922;SDS011;11627;51.322;22.816;2023-08-17T00:12:14;32.08;;;18.33;;
22922;SDS011;11627;51.322;22.816;2023-08-17T00:14:40;23.92;;;17.48;;
22922;SDS011;11627;51.322;22.816;2023-08-17T00:17:06;25.27;;;17.35;;
22922;SDS011;11627;51.322;22.816;2023-08-17T00:19:32;22.38;;;18.33;;
22922;SDS011;11627;51.322;22.816;2023-08-17T00:21:58;29.00;;;17.45;;
22922;SDS011;11627;51.322;22.816;2023-08-17T00:24:23;27.30;;;18.60;;
22922;SDS011;11627;51.322;22.816;2023-08-17T00:26:49;28.92;;;18.77;;
22922;SDS011;11627;51.322;22.816;2023-08-17T00:29:15;27.88;;;18.58;;
22922;SDS011;11627;51.322;22.816;2023-08-17T00:31:42;26.45;;;18.45;;
22922;SDS011;11627;51.322;22.816;2023-08-17T00:34:08;31.92;;;18.65;;
22922;SDS011;11627;51.322;22.816;2023-08-17T00:36:33;23.45;;;16.90;;
22922;SDS011;11627;51.322;22.816;2023-08-17T00:38:59;25.20;;;18.15;;
22922;SDS011;11627;51.322;22.816;2023-08-17T00:41:26;22.08;;;17.83;;
22922;SDS011;11627;51.322;22.816;2023-08-17T00:43:53;23.83;;;18.30;;
22922;SDS011;11627;51.322;22.816;2023-08-17T00:46:19;22.90;;;17.63;;
22922;SDS011;11627;51.322;22.816;2023-08-17T00:48:48;24.60;;;17.95;;
22922;SDS011;11627;51.322;22.816;2023-08-17T00:51:14;25.05;;;18.05;;
22922;SDS011;11627;51.322;22.816;2023-08-17T00:53:40;24.80;;;17.13;;
22922;SDS011;11627;51.322;22.816;2023-08-17T00:56:07;25.35;;;16.98;;
22922;SDS011;11627;51.322;22.816;2023-08-17T00:58:33;25.30;;;17.95;;
22922;SDS011;11627;51.322;22.816;2023-08-17T01:01:00;20.88;;;17.27;;
22922;SDS011;11627;51.322;22.816;2023-08-17T01:03:27;28.20;;;17.35;;
22922;SDS011;11627;51.322;22.816;2023-08-17T01:05:55;29.45;;;17.88;;
22922;SDS011;11627;51.322;22.816;2023-08-17T01:08:22;29.15;;;18.35;;
22922;SDS011;11627;51.322;22.816;2023-08-17T01:13:49;25.95;;;18.45;;
22922;SDS011;11627;51.322;22.816;2023-08-17T01:17:03;29.77;;;18.92;;
22922;SDS011;11627;51.322;22.816;2023-08-17T01:19:44;27.90;;;19.25;;
22922;SDS011;11627;51.322;22.816;2023-08-17T01:22:11;30.10;;;19.77;;
22922;SDS011;11627;51.322;22.816;2023-08-17T01:24:43;24.52;;;18.63;;
22922;SDS011;11627;51.322;22.816;2023-08-17T01:27:09;29.52;;;18.98;;
22922;SDS011;11627;51.322;22.816;2023-08-17T01:29:34;28.67;;;19.05;;
22922;SDS011;11627;51.322;22.816;2023-08-17T01:32:06;25.15;;;18.95;;
22922;SDS011;11627;51.322;22.816;2023-08-17T01:34:40;29.65;;;19.00;;
22922;SDS011;11627;51.322;22.816;2023-08-17T01:37:10;26.35;;;19.45;;
22922;SDS011;11627;51.322;22.816;2023-08-17T01:39:37;29.10;;;19.02;;
22922;SDS011;11627;51.322;22.816;2023-08-17T01:42:05;25.35;;;18.80;;
22922;SDS011;11627;51.322;22.816;2023-08-17T01:44:32;28.15;;;19.27;;
22922;SDS011;11627;51.322;22.816;2023-08-17T01:46:58;32.08;;;20.58;;
22922;SDS011;11627;51.322;22.816;2023-08-17T01:49:24;23.13;;;18.23;;
22922;SDS011;11627;51.322;22.816;2023-08-17T01:51:50;27.70;;;20.00;;
22922;SDS011;11627;51.322;22.816;2023-08-17T01:54:16;24.40;;;19.50;;
22922;SDS011;11627;51.322;22.816;2023-08-17T01:56:42;22.70;;;18.85;;
22922;SDS011;11627;51.322;22.816;2023-08-17T01:59:07;27.30;;;18.90;;
22922;SDS011;11627;51.322;22.816;2023-08-17T02:01:33;21.90;;;18.23;;
22922;SDS011;11627;51.322;22.816;2023-08-17T02:03:59;23.67;;;18.85;;
22922;SDS011;11627;51.322;22.816;2023-08-17T02:06:27;26.08;;;18.80;;
22922;SDS011;11627;51.322;22.816;2023-08-17T02:08:54;22.08;;;18.02;;
22922;SDS011;11627;51.322;22.816;2023-08-17T02:11:20;24.17;;;18.30;;
22922;SDS011;11627;51.322;22.816;2023-08-17T02:13:46;24.88;;;18.95;;
22922;SDS011;11627;51.322;22.816;2023-08-17T02:16:11;28.58;;;18.35;;
22922;SDS011;11627;51.322;22.816;2023-08-17T02:18:37;21.83;;;17.70;;
22922;SDS011;11627;51.322;22.816;2023-08-17T02:21:03;25.30;;;18.10;;
22922;SDS011;11627;51.322;22.816;2023-08-17T02:23:29;24.15;;;18.50;;
22922;SDS011;11627;51.322;22.816;2023-08-17T02:25:55;25.05;;;18.20;;
22922;SDS011;11627;51.322;22.816;2023-08-17T02:28:21;26.77;;;18.25;;
22922;SDS011;11627;51.322;22.816;2023-08-17T02:30:46;27.83;;;19.02;;
22922;SDS011;11627;51.322;22.816;2023-08-17T02:33:14;27.75;;;18.85;;
22922;SDS011;11627;51.322;22.816;2023-08-17T02:35:39;26.25;;;20.27;;
22922;SDS011;11627;51.322;22.816;2023-08-17T02:38:05;27.02;;;20.02;;
22922;SDS011;11627;51.322;22.816;2023-08-17T02:40:31;30.42;;;19.60;;
22922;SDS011;11627;51.322;22.816;2023-08-17T02:42:57;24.20;;;18.48;;
22922;SDS011;11627;51.322;22.816;2023-08-17T02:45:23;23.50;;;20.30;;
22922;SDS011;11627;51.322;22.816;2023-08-17T02:47:48;23.52;;;18.17;;
22922;SDS011;11627;51.322;22.816;2023-08-17T02:50:14;26.75;;;19.70;;
22922;SDS011;11627;51.322;22.816;2023-08-17T02:52:40;25.10;;;19.48;;
22922;SDS011;11627;51.322;22.816;2023-08-17T02:55:07;24.25;;;18.80;;
22922;SDS011;11627;51.322;22.816;2023-08-17T02:57:33;22.48;;;18.23;;
22922;SDS011;11627;51.322;22.816;2023-08-17T02:59:59;29.15;;;19.10;;
22922;SDS011;11627;51.322;22.816;2023-08-17T03:02:25;30.98;;;19.70;;
22922;SDS011;11627;51.322;22.816;2023-08-17T03:04:51;24.98;;;19.20;;
22922;SDS011;11627;51.322;22.816;2023-08-17T03:07:17;26.55;;;19.65;;
22922;SDS011;11627;51.322;22.816;2023-08-17T03:09:43;23.80;;;17.83;;
22922;SDS011;11627;51.322;22.816;2023-08-17T03:12:09;33.53;;;19.17;;
22922;SDS011;11627;51.322;22.816;2023-08-17T03:14:34;27.10;;;21.35;;
22922;SDS011;11627;51.322;22.816;2023-08-17T03:17:00;29.50;;;20.55;;
22922;SDS011;11627;51.322;22.816;2023-08-17T03:19:26;32.08;;;21.90;;
22922;SDS011;11627;51.322;22.816;2023-08-17T03:21:52;31.33;;;21.00;;
22922;SDS011;11627;51.322;22.816;2023-08-17T03:24:18;30.27;;;19.90;;
22922;SDS011;11627;51.322;22.816;2023-08-17T03:26:43;25.13;;;19.05;;
22922;SDS011;11627;51.322;22.816;2023-08-17T03:29:09;24.70;;;19.77;;
22922;SDS011;11627;51.322;22.816;2023-08-17T03:31:35;27.30;;;19.83;;
22922;SDS011;11627;51.322;22.816;2023-08-17T03:34:01;27.90;;;19.77;;
22922;SDS011;11627;51.322;22.816;2023-08-17T03:36:27;27.45;;;20.52;;
22922;SDS011;11627;51.322;22.816;2023-08-17T03:38:53;28.05;;;20.17;;
22922;SDS011;11627;51.322;22.816;2023-08-17T03:41:20;31.05;;;20.83;;
22922;SDS011;11627;51.322;22.816;2023-08-17T03:43:48;23.75;;;19.17;;
22922;SDS011;11627;51.322;22.816;2023-08-17T03:46:14;23.52;;;19.38;;
22922;SDS011;11627;51.322;22.816;2023-08-17T03:48:40;27.40;;;18.73;;
22922;SDS011;11627;51.322;22.816;2023-08-17T03:51:06;26.00;;;19.95;;
22922;SDS011;11627;51.322;22.816;2023-08-17T03:53:32;30.00;;;19.98;;
22922;SDS011;11627;51.322;22.816;2023-08-17T03:55:57;29.58;;;19.33;;
22922;SDS011;11627;51.322;22.816;2023-08-17T03:58:23;23.55;;;18.42;;
22922;SDS011;11627;51.322;22.816;2023-08-17T04:00:52;28.75;;;19.60;;
22922;SDS011;11627;51.322;22.816;2023-08-17T04:03:18;22.50;;;18.20;;
22922;SDS011;11627;51.322;22.816;2023-08-17T04:05:45;29.55;;;19.00;;
22922;SDS011;11627;51.322;22.816;2023-08-17T04:08:10;27.50;;;19.13;;
22922;SDS011;11627;51.322;22.816;2023-08-17T04:10:36;24.65;;;19.20;;
22922;SDS011;11627;51.322;22.816;2023-08-17T04:13:02;23.35;;;18.17;;
22922;SDS011;11627;51.322;22.816;2023-08-17T04:15:28;27.65;;;18.42;;
22922;SDS011;11627;51.322;22.816;2023-08-17T04:17:54;26.75;;;18.95;;
22922;SDS011;11627;51.322;22.816;2023-08-17T04:20:20;24.40;;;19.40;;
22922;SDS011;11627;51.322;22.816;2023-08-17T04:22:47;27.98;;;19.92;;
22922;SDS011;11627;51.322;22.816;2023-08-17T04:25:13;22.55;;;18.65;;
22922;SDS011;11627;51.322;22.816;2023-08-17T04:27:40;28.45;;;20.35;;
22922;SDS011;11627;51.322;22.816;2023-08-17T04:30:06;24.85;;;18.63;;
22922;SDS011;11627;51.322;22.816;2023-08-17T04:32:33;25.45;;;18.80;;
22922;SDS011;11627;51.322;22.816;2023-08-17T04:34:59;27.73;;;20.00;;
22922;SDS011;11627;51.322;22.816;2023-08-17T04:37:25;29.02;;;19.75;;
22922;SDS011;11627;51.322;22.816;2023-08-17T04:39:51;26.60;;;20.33;;
22922;SDS011;11627;51.322;22.816;2023-08-17T04:42:16;23.85;;;18.67;;
22922;SDS011;11627;51.322;22.816;2023-08-17T04:44:45;25.05;;;18.40;;
22922;SDS011;11627;51.322;22.816;2023-08-17T04:47:11;25.13;;;18.52;;
22922;SDS011;11627;51.322;22.816;2023-08-17T04:49:37;27.38;;;19.80;;
22922;SDS011;11627;51.322;22.816;2023-08-17T04:52:03;27.45;;;20.30;;
22922;SDS011;11627;51.322;22.816;2023-08-17T04:54:29;31.33;;;20.23;;
22922;SDS011;11627;51.322;22.816;2023-08-17T04:56:55;27.33;;;19.73;;
22922;SDS011;11627;51.322;22.816;2023-08-17T04:59:21;25.40;;;19.15;;
22922;SDS011;11627;51.322;22.816;2023-08-17T05:01:47;27.38;;;20.48;;
22922;SDS011;11627;51.322;22.816;2023-08-17T05:04:13;26.95;;;19.40;;
22922;SDS011;11627;51.322;22.816;2023-08-17T05:06:38;25.98;;;19.58;;
22922;SDS011;11627;51.322;22.816;2023-08-17T05:09:04;29.58;;;19.45;;
22922;SDS011;11627;51.322;22.816;2023-08-17T05:11:30;30.33;;;19.45;;
22922;SDS011;11627;51.322;22.816;2023-08-17T05:13:56;27.65;;;19.10;;
22922;SDS011;11627;51.322;22.816;2023-08-17T05:16:22;25.75;;;19.15;;
22922;SDS011;11627;51.322;22.816;2023-08-17T05:18:48;24.10;;;18.45;;
22922;SDS011;11627;51.322;22.816;2023-08-17T05:21:14;21.83;;;18.15;;
22922;SDS011;11627;51.322;22.816;2023-08-17T05:23:40;26.05;;;19.25;;
22922;SDS011;11627;51.322;22.816;2023-08-17T05:26:06;26.58;;;18.15;;
22922;SDS011;11627;51.322;22.816;2023-08-17T05:28:33;25.75;;;19.23;;
22922;SDS011;11627;51.322;22.816;2023-08-17T05:31:05;25.98;;;17.85;;
22922;SDS011;11627;51.322;22.816;2023-08-17T05:33:31;22.70;;;18.10;;
22922;SDS011;11627;51.322;22.816;2023-08-17T05:35:57;29.48;;;18.25;;
22922;SDS011;11627;51.322;22.816;2023-08-17T05:38:23;21.35;;;16.67;;
22922;SDS011;11627;51.322;22.816;2023-08-17T05:40:55;26.05;;;18.25;;
22922;SDS011;11627;51.322;22.816;2023-08-17T05:43:22;26.75;;;18.83;;
22922;SDS011;11627;51.322;22.816;2023-08-17T05:45:49;25.95;;;18.20;;
22922;SDS011;11627;51.322;22.816;2023-08-17T05:48:15;29.58;;;19.48;;
22922;SDS011;11627;51.322;22.816;2023-08-17T05:50:44;22.25;;;17.70;;
22922;SDS011;11627;51.322;22.816;2023-08-17T05:53:10;23.40;;;16.50;;
22922;SDS011;11627;51.322;22.816;2023-08-17T05:55:36;24.88;;;17.35;;
22922;SDS011;11627;51.322;22.816;2023-08-17T05:58:02;22.30;;;16.15;;
22922;SDS011;11627;51.322;22.816;2023-08-17T06:00:29;19.35;;;16.52;;
22922;SDS011;11627;51.322;22.816;2023-08-17T06:02:55;20.50;;;16.92;;
22922;SDS011;11627;51.322;22.816;2023-08-17T06:05:26;25.42;;;18.80;;
22922;SDS011;11627;51.322;22.816;2023-08-17T06:07:54;30.95;;;18.77;;
22922;SDS011;11627;51.322;22.816;2023-08-17T06:10:23;25.15;;;18.45;;
22922;SDS011;11627;51.322;22.816;2023-08-17T06:12:53;28.10;;;19.48;;
22922;SDS011;11627;51.322;22.816;2023-08-17T06:15:20;29.50;;;21.33;;
22922;SDS011;11627;51.322;22.816;2023-08-17T06:17:48;27.70;;;20.10;;
22922;SDS011;11627;51.322;22.816;2023-08-17T06:20:15;24.80;;;18.08;;
22922;SDS011;11627;51.322;22.816;2023-08-17T06:22:41;26.40;;;18.58;;
22922;SDS011;11627;51.322;22.816;2023-08-17T06:25:07;28.20;;;17.63;;
22922;SDS011;11627;51.322;22.816;2023-08-17T06:27:34;24.90;;;18.08;;
22922;SDS011;11627;51.322;22.816;2023-08-17T06:30:04;28.67;;;18.27;;
22922;SDS011;11627;51.322;22.816;2023-08-17T06:32:30;19.77;;;16.70;;
22922;SDS011;11627;51.322;22.816;2023-08-17T06:34:56;23.50;;;15.93;;
22922;SDS011;11627;51.322;22.816;2023-08-17T06:37:22;23.95;;;15.70;;
22922;SDS011;11627;51.322;22.816;2023-08-17T06:39:48;21.20;;;16.30;;
22922;SDS011;11627;51.322;22.816;2023-08-17T06:42:14;22.80;;;16.33;;
22922;SDS011;11627;51.322;22.816;2023-08-17T06:44:40;21.38;;;14.95;;
22922;SDS011;11627;51.322;22.816;2023-08-17T06:47:06;17.58;;;14.40;;
22922;SDS011;11627;51.322;22.816;2023-08-17T06:49:32;20.25;;;14.63;;
22922;SDS011;11627;51.322;22.816;2023-08-17T06:51:57;15.55;;;13.55;;
22922;SDS011;11627;51.322;22.816;2023-08-17T06:54:23;22.20;;;14.15;;
22922;SDS011;11627;51.322;22.816;2023-08-17T06:56:49;16.05;;;13.00;;
22922;SDS011;11627;51.322;22.816;2023-08-17T06:59:15;18.08;;;13.25;;
22922;SDS011;11627;51.322;22.816;2023-08-17T07:01:41;17.10;;;13.85;;
22922;SDS011;11627;51.322;22.816;2023-08-17T07:04:06;17.92;;;12.73;;
22922;SDS011;11627;51.322;22.816;2023-08-17T07:06:32;17.50;;;12.88;;
22922;SDS011;11627;51.322;22.816;2023-08-17T07:08:59;16.33;;;13.13;;
22922;SDS011;11627;51.322;22.816;2023-08-17T07:11:25;22.02;;;13.38;;
22922;SDS011;11627;51.322;22.816;2023-08-17T07:13:51;18.48;;;13.82;;
22922;SDS011;11627;51.322;22.816;2023-08-17T07:16:17;17.65;;;13.18;;
22922;SDS011;11627;51.322;22.816;2023-08-17T07:18:42;21.23;;;12.55;;
22922;SDS011;11627;51.322;22.816;2023-08-17T07:21:08;15.80;;;11.45;;
22922;SDS011;11627;51.322;22.816;2023-08-17T07:23:34;14.93;;;11.43;;
22922;SDS011;11627;51.322;22.816;2023-08-17T07:26:00;14.00;;;11.25;;
22922;SDS011;11627;51.322;22.816;2023-08-17T07:28:26;15.35;;;11.00;;
22922;SDS011;11627;51.322;22.816;2023-08-17T07:30:53;15.05;;;11.65;;
22922;SDS011;11627;51.322;22.816;2023-08-17T07:33:18;18.08;;;12.38;;
22922;SDS011;11627;51.322;22.816;2023-08-17T07:35:44;16.73;;;11.82;;
22922;SDS011;11627;51.322;22.816;2023-08-17T07:38:10;14.90;;;11.07;;
22922;SDS011;11627;51.322;22.816;2023-08-17T07:40:36;16.15;;;11.23;;
22922;SDS011;11627;51.322;22.816;2023-08-17T07:43:03;12.00;;;9.40;;
22922;SDS011;11627;51.322;22.816;2023-08-17T07:45:29;15.13;;;9.88;;
22922;SDS011;11627;51.322;22.816;2023-08-17T07:47:54;20.42;;;10.27;;
22922;SDS011;11627;51.322;22.816;2023-08-17T07:50:20;17.58;;;11.07;;
22922;SDS011;11627;51.322;22.816;2023-08-17T07:52:46;19.88;;;10.82;;
22922;SDS011;11627;51.322;22.816;2023-08-17T07:55:12;17.80;;;11.38;;
22922;SDS011;11627;51.322;22.816;2023-08-17T07:57:38;20.83;;;10.60;;
22922;SDS011;11627;51.322;22.816;2023-08-17T08:00:04;15.65;;;10.95;;
22922;SDS011;11627;51.322;22.816;2023-08-17T08:02:31;16.15;;;10.75;;
22922;SDS011;11627;51.322;22.816;2023-08-17T08:04:57;26.40;;;10.45;;
22922;SDS011;11627;51.322;22.816;2023-08-17T08:07:22;12.85;;;9.23;;
22922;SDS011;11627;51.322;22.816;2023-08-17T08:09:48;16.67;;;9.23;;
22922;SDS011;11627;51.322;22.816;2023-08-17T08:12:14;14.57;;;9.05;;
22922;SDS011;11627;51.322;22.816;2023-08-17T08:14:40;13.65;;;9.38;;
22922;SDS011;11627;51.322;22.816;2023-08-17T08:17:06;11.88;;;8.55;;
22922;SDS011;11627;51.322;22.816;2023-08-17T08:19:31;12.15;;;9.02;;
22922;SDS011;11627;51.322;22.816;2023-08-17T08:21:58;16.27;;;9.80;;
22922;SDS011;11627;51.322;22.816;2023-08-17T08:24:24;12.90;;;8.30;;
22922;SDS011;11627;51.322;22.816;2023-08-17T08:26:50;14.57;;;9.20;;
22922;SDS011;11627;51.322;22.816;2023-08-17T08:29:18;11.27;;;9.63;;
22922;SDS011;11627;51.322;22.816;2023-08-17T08:31:43;30.95;;;11.80;;
22922;SDS011;11627;51.322;22.816;2023-08-17T08:34:09;21.88;;;10.77;;
22922;SDS011;11627;51.322;22.816;2023-08-17T08:36:35;21.02;;;10.02;;
22922;SDS011;11627;51.322;22.816;2023-08-17T08:39:01;19.10;;;10.15;;
22922;SDS011;11627;51.322;22.816;2023-08-17T08:41:27;13.18;;;9.40;;
22922;SDS011;11627;51.322;22.816;2023-08-17T08:43:55;12.65;;;9.30;;
22922;SDS011;11627;51.322;22.816;2023-08-17T08:46:20;18.00;;;9.98;;
22922;SDS011;11627;51.322;22.816;2023-08-17T08:48:51;22.63;;;10.52;;
22922;SDS011;11627;51.322;22.816;2023-08-17T08:51:23;12.55;;;9.30;;
22922;SDS011;11627;51.322;22.816;2023-08-17T08:54:00;11.75;;;9.52;;
22922;SDS011;11627;51.322;22.816;2023-08-17T08:56:28;13.63;;;9.57;;
22922;SDS011;11627;51.322;22.816;2023-08-17T08:58:58;11.80;;;9.32;;
22922;SDS011;11627;51.322;22.816;2023-08-17T09:01:28;13.07;;;9.10;;
22922;SDS011;11627;51.322;22.816;2023-08-17T09:03:58;9.55;;;8.55;;
22922;SDS011;11627;51.322;22.816;2023-08-17T09:06:29;12.73;;;8.38;;
22922;SDS011;11627;51.322;22.816;2023-08-17T09:08:59;11.95;;;8.45;;
22922;SDS011;11627;51.322;22.816;2023-08-17T09:11:27;11.50;;;8.98;;
22922;SDS011;11627;51.322;22.816;2023-08-17T09:13:55;12.93;;;7.82;;
22922;SDS011;11627;51.322;22.816;2023-08-17T09:16:20;9.93;;;7.68;;
22922;SDS011;11627;51.322;22.816;2023-08-17T09:18:46;10.93;;;8.07;;
22922;SDS011;11627;51.322;22.816;2023-08-17T09:21:22;11.63;;;7.43;;
22922;SDS011;11627;51.322;22.816;2023-08-17T09:23:55;7.35;;;5.90;;
22922;SDS011;11627;51.322;22.816;2023-08-17T09:26:21;10.52;;;6.45;;
22922;SDS011;11627;51.322;22.816;2023-08-17T09:28:49;10.40;;;5.95;;
22922;SDS011;11627;51.322;22.816;2023-08-17T09:31:17;14.70;;;6.20;;
22922;SDS011;11627;51.322;22.816;2023-08-17T09:33:51;8.63;;;5.78;;
22922;SDS011;11627;51.322;22.816;2023-08-17T09:36:21;11.63;;;5.45;;
22922;SDS011;11627;51.322;22.816;2023-08-17T09:38:49;8.43;;;4.95;;
22922;SDS011;11627;51.322;22.816;2023-08-17T09:41:17;6.85;;;4.90;;
22922;SDS011;11627;51.322;22.816;2023-08-17T09:43:44;8.27;;;5.38;;
22922;SDS011;11627;51.322;22.816;2023-08-17T09:46:11;10.00;;;4.95;;
22922;SDS011;11627;51.322;22.816;2023-08-17T09:48:37;8.98;;;4.78;;
22922;SDS011;11627;51.322;22.816;2023-08-17T09:51:03;6.82;;;5.03;;
22922;SDS011;11627;51.322;22.816;2023-08-17T09:53:34;9.05;;;4.32;;
22922;SDS011;11627;51.322;22.816;2023-08-17T09:56:04;9.43;;;4.03;;
22922;SDS011;11627;51.322;22.816;2023-08-17T09:58:32;9.40;;;4.90;;
22922;SDS011;11627;51.322;22.816;2023-08-17T10:00:58;10.23;;;4.43;;
22922;SDS011;11627;51.322;22.816;2023-08-17T10:03:29;7.60;;;4.72;;
22922;SDS011;11627;51.322;22.816;2023-08-17T10:06:05;5.05;;;4.22;;
22922;SDS011;11627;51.322;22.816;2023-08-17T10:08:36;6.18;;;4.47;;
22922;SDS011;11627;51.322;22.816;2023-08-17T10:11:08;5.03;;;3.83;;
22922;SDS011;11627;51.322;22.816;2023-08-17T10:13:40;6.15;;;3.75;;
22922;SDS011;11627;51.322;22.816;2023-08-17T10:18:54;4.45;;;3.60;;
22922;SDS011;11627;51.322;22.816;2023-08-17T10:24:33;6.25;;;3.83;;
22922;SDS011;11627;51.322;22.816;2023-08-17T10:27:01;3.80;;;3.08;;
22922;SDS011;11627;51.322;22.816;2023-08-17T10:29:29;4.07;;;3.17;;
22922;SDS011;11627;51.322;22.816;2023-08-17T10:31:56;6.80;;;3.50;;
22922;SDS011;11627;51.322;22.816;2023-08-17T10:34:25;5.55;;;3.47;;
22922;SDS011;11627;51.322;22.816;2023-08-17T10:36:52;7.82;;;4.30;;
22922;SDS011;11627;51.322;22.816;2023-08-17T10:39:25;5.68;;;4.57;;
22922;SDS011;11627;51.322;22.816;2023-08-17T10:41:53;7.32;;;4.57;;
22922;SDS011;11627;51.322;22.816;2023-08-17T10:44:38;6.53;;;4.30;;
22922;SDS011;11627;51.322;22.816;2023-08-17T10:47:20;6.75;;;4.10;;
22922;SDS011;11627;51.322;22.816;2023-08-17T10:52:34;5.80;;;4.20;;
22922;SDS011;11627;51.322;22.816;2023-08-17T10:55:06;7.75;;;4.22;;
22922;SDS011;11627;51.322;22.816;2023-08-17T10:57:37;4.88;;;4.38;;
22922;SDS011;11627;51.322;22.816;2023-08-17T11:02:53;7.65;;;4.43;;
22922;SDS011;11627;51.322;22.816;2023-08-17T11:05:38;10.00;;;5.22;;
22922;SDS011;11627;51.322;22.816;2023-08-17T11:08:21;6.38;;;4.60;;
22922;SDS011;11627;51.322;22.816;2023-08-17T11:11:12;5.75;;;5.10;;
22922;SDS011;11627;51.322;22.816;2023-08-17T11:13:43;9.85;;;5.05;;
22922;SDS011;11627;51.322;22.816;2023-08-17T11:16:11;8.23;;;5.25;;
22922;SDS011;11627;51.322;22.816;2023-08-17T11:18:39;12.90;;;5.95;;
22922;SDS011;11627;51.322;22.816;2023-08-17T11:21:06;7.45;;;5.20;;
22922;SDS011;11627;51.322;22.816;2023-08-17T11:23:35;8.40;;;5.75;;
22922;SDS011;11627;51.322;22.816;2023-08-17T11:26:02;11.77;;;5.43;;
22922;SDS011;11627;51.322;22.816;2023-08-17T11:28:29;7.30;;;5.25;;
22922;SDS011;11627;51.322;22.816;2023-08-17T11:31:04;12.77;;;5.63;;
22922;SDS011;11627;51.322;22.816;2023-08-17T11:33:35;9.23;;;5.90;;
22922;SDS011;11627;51.322;22.816;2023-08-17T11:36:03;7.05;;;5.60;;
22922;SDS011;11627;51.322;22.816;2023-08-17T11:38:35;8.93;;;5.68;;
22922;SDS011;11627;51.322;22.816;2023-08-17T11:41:03;16.75;;;5.60;;
22922;SDS011;11627;51.322;22.816;2023-08-17T11:43:29;6.75;;;5.28;;
22922;SDS011;11627;51.322;22.816;2023-08-17T11:45:57;8.40;;;5.45;;
22922;SDS011;11627;51.322;22.816;2023-08-17T11:48:24;15.32;;;6.15;;
22922;SDS011;11627;51.322;22.816;2023-08-17T11:50:51;8.02;;;5.18;;
22922;SDS011;11627;51.322;22.816;2023-08-17T11:53:17;7.78;;;5.35;;
22922;SDS011;11627;51.322;22.816;2023-08-17T11:55:43;10.85;;;5.40;;
22922;SDS011;11627;51.322;22.816;2023-08-17T11:58:09;9.93;;;5.55;;
22922;SDS011;11627;51.322;22.816;2023-08-17T12:00:36;11.90;;;5.55;;
22922;SDS011;11627;51.322;22.816;2023-08-17T12:03:06;9.93;;;5.80;;
22922;SDS011;11627;51.322;22.816;2023-08-17T12:05:32;7.68;;;5.10;;
22922;SDS011;11627;51.322;22.816;2023-08-17T12:07:59;13.32;;;6.03;;
22922;SDS011;11627;51.322;22.816;2023-08-17T12:10:28;9.68;;;5.90;;
22922;SDS011;11627;51.322;22.816;2023-08-17T12:12:57;8.90;;;5.57;;
22922;SDS011;11627;51.322;22.816;2023-08-17T12:15:30;16.40;;;5.80;;
22922;SDS011;11627;51.322;22.816;2023-08-17T12:17:58;13.20;;;5.93;;
22922;SDS011;11627;51.322;22.816;2023-08-17T12:20:26;7.78;;;5.28;;
22922;SDS011;11627;51.322;22.816;2023-08-17T12:22:52;8.35;;;6.13;;
22922;SDS011;11627;51.322;22.816;2023-08-17T12:25:21;9.25;;;5.75;;
22922;SDS011;11627;51.322;22.816;2023-08-17T12:27:48;11.80;;;5.93;;
22922;SDS011;11627;51.322;22.816;2023-08-17T12:30:20;8.70;;;5.70;;
22922;SDS011;11627;51.322;22.816;2023-08-17T12:32:57;9.77;;;6.03;;
22922;SDS011;11627;51.322;22.816;2023-08-17T12:35:24;9.18;;;5.70;;
22922;SDS011;11627;51.322;22.816;2023-08-17T12:37:51;11.98;;;5.28;;
22922;SDS011;11627;51.322;22.816;2023-08-17T12:40:18;12.07;;;4.93;;
22922;SDS011;11627;51.322;22.816;2023-08-17T12:42:45;9.68;;;5.65;;
22922;SDS011;11627;51.322;22.816;2023-08-17T12:45:10;10.52;;;5.15;;
22922;SDS011;11627;51.322;22.816;2023-08-17T12:47:37;7.95;;;5.13;;
22922;SDS011;11627;51.322;22.816;2023-08-17T12:50:03;12.77;;;5.57;;
22922;SDS011;11627;51.322;22.816;2023-08-17T12:52:30;9.63;;;5.50;;
22922;SDS011;11627;51.322;22.816;2023-08-17T12:54:55;7.90;;;6.18;;
22922;SDS011;11627;51.322;22.816;2023-08-17T12:57:21;8.73;;;5.90;;
22922;SDS011;11627;51.322;22.816;2023-08-17T12:59:47;9.85;;;6.18;;
22922;SDS011;11627;51.322;22.816;2023-08-17T13:02:13;7.88;;;4.45;;
22922;SDS011;11627;51.322;22.816;2023-08-17T13:04:39;10.20;;;4.30;;
22922;SDS011;11627;51.322;22.816;2023-08-17T13:07:06;10.63;;;4.30;;
22922;SDS011;11627;51.322;22.816;2023-08-17T13:09:32;8.77;;;5.00;;
22922;SDS011;11627;51.322;22.816;2023-08-17T13:11:58;5.43;;;4.35;;
22922;SDS011;11627;51.322;22.816;2023-08-17T13:14:25;8.10;;;4.75;;
22922;SDS011;11627;51.322;22.816;2023-08-17T13:16:51;7.25;;;4.90;;
22922;SDS011;11627;51.322;22.816;2023-08-17T13:19:17;9.15;;;4.75;;
22922;SDS011;11627;51.322;22.816;2023-08-17T13:21:43;10.63;;;5.18;;
22922;SDS011;11627;51.322;22.816;2023-08-17T13:24:10;9.27;;;4.50;;
22922;SDS011;11627;51.322;22.816;2023-08-17T13:26:36;10.20;;;4.78;;
22922;SDS011;11627;51.322;22.816;2023-08-17T13:29:02;6.80;;;4.68;;
22922;SDS011;11627;51.322;22.816;2023-08-17T13:31:29;7.95;;;4.63;;
22922;SDS011;11627;51.322;22.816;2023-08-17T13:33:55;8.60;;;4.30;;
22922;SDS011;11627;51.322;22.816;2023-08-17T13:36:20;7.18;;;4.60;;
22922;SDS011;11627;51.322;22.816;2023-08-17T13:38:46;6.38;;;4.18;;
22922;SDS011;11627;51.322;22.816;2023-08-17T13:41:12;7.97;;;3.97;;
22922;SDS011;11627;51.322;22.816;2023-08-17T13:43:38;8.45;;;3.70;;
22922;SDS011;11627;51.322;22.816;2023-08-17T13:46:05;8.15;;;4.30;;
22922;SDS011;11627;51.322;22.816;2023-08-17T13:48:31;6.30;;;4.35;;
22922;SDS011;11627;51.322;22.816;2023-08-17T13:50:57;7.30;;;4.30;;
22922;SDS011;11627;51.322;22.816;2023-08-17T13:53:22;8.13;;;4.22;;
22922;SDS011;11627;51.322;22.816;2023-08-17T13:55:48;6.55;;;4.20;;
22922;SDS011;11627;51.322;22.816;2023-08-17T13:58:14;5.25;;;4.03;;
22922;SDS011;11627;51.322;22.816;2023-08-17T14:00:41;5.13;;;3.90;;
22922;SDS011;11627;51.322;22.816;2023-08-17T14:03:07;7.50;;;4.07;;
22922;SDS011;11627;51.322;22.816;2023-08-17T14:05:33;4.65;;;3.92;;
22922;SDS011;11627;51.322;22.816;2023-08-17T14:07:59;7.25;;;3.50;;
22922;SDS011;11627;51.322;22.816;2023-08-17T14:10:25;6.25;;;3.85;;
22922;SDS011;11627;51.322;22.816;2023-08-17T14:12:51;9.70;;;4.05;;
22922;SDS011;11627;51.322;22.816;2023-08-17T14:15:17;9.55;;;3.63;;
22922;SDS011;11627;51.322;22.816;2023-08-17T14:17:43;3.85;;;3.40;;
22922;SDS011;11627;51.322;22.816;2023-08-17T14:20:09;6.40;;;3.65;;
22922;SDS011;11627;51.322;22.816;2023-08-17T14:22:35;5.82;;;3.90;;
22922;SDS011;11627;51.322;22.816;2023-08-17T14:25:01;12.45;;;4.20;;
22922;SDS011;11627;51.322;22.816;2023-08-17T14:27:28;11.60;;;4.93;;
22922;SDS011;11627;51.322;22.816;2023-08-17T14:29:54;7.25;;;4.88;;
22922;SDS011;11627;51.322;22.816;2023-08-17T14:32:20;8.38;;;4.32;;